createdAt,value
2023-11-08T00:00:03.361Z,2.40
2023-11-08T00:02:30.401Z,3.00
2023-11-08T00:04:57.402Z,4.60
2023-11-08T00:07:24.991Z,3.90
2023-11-08T00:09:51.952Z,3.10
2023-11-08T00:12:19.036Z,3.60
2023-11-08T00:14:46.983Z,2.90
2023-11-08T00:17:17.506Z,3.20
2023-11-08T00:19:44.524Z,3.30
2023-11-08T00:22:13.011Z,3.00
2023-11-08T00:24:40.161Z,2.90
2023-11-08T00:27:07.171Z,3.23
2023-11-08T00:29:34.481Z,3.03
2023-11-08T00:32:01.507Z,2.67
2023-11-08T00:34:28.986Z,3.10
2023-11-08T00:36:57.339Z,3.30
2023-11-08T00:39:24.353Z,2.80
2023-11-08T00:41:51.294Z,2.83
2023-11-08T00:44:18.251Z,3.07
2023-11-08T00:46:45.185Z,2.40
2023-11-08T00:49:14.282Z,3.10
2023-11-08T00:51:41.763Z,2.77
2023-11-08T00:54:08.921Z,2.47
2023-11-08T00:56:36.340Z,2.97
2023-11-08T00:59:03.981Z,2.90
2023-11-08T01:01:36.483Z,2.87
2023-11-08T01:04:08.257Z,2.47
2023-11-08T01:06:35.640Z,2.80
2023-11-08T01:09:02.634Z,3.00
2023-11-08T01:11:29.779Z,2.43
2023-11-08T01:13:56.779Z,2.93
2023-11-08T01:16:23.817Z,3.03
2023-11-08T01:18:50.887Z,2.90
2023-11-08T01:21:17.931Z,2.47
2023-11-08T01:23:45.134Z,3.07
2023-11-08T01:26:12.170Z,3.50
2023-11-08T01:28:39.425Z,2.90
2023-11-08T01:31:06.556Z,3.03
2023-11-08T01:33:33.562Z,3.00
2023-11-08T01:36:01.225Z,2.63
2023-11-08T01:38:28.172Z,3.00
2023-11-08T01:40:55.095Z,3.00
2023-11-08T01:43:30.238Z,2.97
2023-11-08T01:46:09.240Z,3.17
2023-11-08T01:48:36.429Z,2.57
2023-11-08T01:51:05.282Z,2.83
2023-11-08T01:53:37.284Z,3.47
2023-11-08T01:56:05.143Z,3.70
2023-11-08T01:58:35.317Z,3.00
2023-11-08T02:01:08.877Z,2.53
2023-11-08T02:03:41.405Z,2.83
2023-11-08T02:06:12.288Z,2.80
2023-11-08T02:08:40.656Z,2.53
2023-11-08T02:11:09.323Z,3.00
2023-11-08T02:13:36.260Z,3.40
2023-11-08T02:16:04.150Z,2.70
2023-11-08T02:18:32.596Z,2.97
2023-11-08T02:21:03.616Z,2.87
2023-11-08T02:23:33.188Z,2.90
2023-11-08T02:26:00.792Z,2.50
2023-11-08T02:28:28.284Z,3.17
2023-11-08T02:30:56.564Z,3.10
2023-11-08T02:33:28.753Z,2.40
2023-11-08T02:35:56.203Z,2.87
2023-11-08T02:38:23.180Z,2.77
2023-11-08T02:40:50.462Z,2.97
2023-11-08T02:43:17.872Z,2.93
2023-11-08T02:45:45.551Z,2.57
2023-11-08T02:48:12.610Z,3.37
2023-11-08T02:50:40.838Z,2.77
2023-11-08T02:53:08.510Z,2.60
2023-11-08T02:55:38.288Z,2.70
2023-11-08T02:58:05.419Z,2.93
2023-11-08T03:00:32.802Z,3.27
2023-11-08T03:03:00.004Z,2.47
2023-11-08T03:05:27.067Z,2.60
2023-11-08T03:07:55.699Z,3.10
2023-11-08T03:10:23.486Z,3.03
2023-11-08T03:12:52.740Z,2.50
2023-11-08T03:15:22.755Z,2.70
2023-11-08T03:17:52.585Z,2.80
2023-11-08T03:20:20.714Z,2.47
2023-11-08T03:22:48.509Z,2.60
2023-11-08T03:25:18.533Z,2.60
2023-11-08T03:27:47.588Z,2.70
2023-11-08T03:30:17.634Z,2.80
2023-11-08T03:32:45.765Z,2.60
2023-11-08T03:35:16.467Z,2.40
2023-11-08T03:37:44.757Z,2.23
2023-11-08T03:40:13.853Z,2.70
2023-11-08T03:42:47.882Z,2.70
2023-11-08T03:45:14.964Z,2.60
2023-11-08T03:47:42.912Z,2.40
2023-11-08T03:50:10.849Z,2.77
2023-11-08T03:52:38.164Z,2.20
2023-11-08T03:55:06.786Z,1.90
2023-11-08T03:57:33.848Z,2.03
2023-11-08T04:00:01.084Z,2.20
2023-11-08T04:02:28.559Z,2.00
2023-11-08T04:04:55.469Z,2.13
2023-11-08T04:07:22.507Z,2.23
2023-11-08T04:09:50.307Z,1.93
2023-11-08T04:12:17.401Z,2.17
2023-11-08T04:14:44.594Z,1.63
2023-11-08T04:17:11.906Z,1.90
2023-11-08T04:19:39.389Z,2.30
2023-11-08T04:22:07.483Z,2.00
2023-11-08T04:24:35.536Z,1.80
2023-11-08T04:27:05.631Z,1.93
2023-11-08T04:29:32.951Z,1.73
2023-11-08T04:32:00.189Z,1.90
2023-11-08T04:34:27.339Z,2.73
2023-11-08T04:36:54.428Z,2.50
2023-11-08T04:39:23.458Z,2.10
2023-11-08T04:41:52.080Z,1.90
2023-11-08T04:44:20.475Z,1.80
2023-11-08T04:46:47.816Z,1.80
2023-11-08T04:49:15.438Z,2.13
2023-11-08T04:51:43.106Z,1.97
2023-11-08T04:54:10.198Z,2.50
2023-11-08T04:56:37.229Z,2.33
2023-11-08T04:59:04.547Z,1.90
2023-11-08T05:01:31.527Z,2.30
2023-11-08T05:04:01.067Z,2.07
2023-11-08T05:06:28.662Z,1.87
2023-11-08T05:08:55.765Z,1.73
2023-11-08T05:11:22.969Z,2.40
2023-11-08T05:13:50.545Z,1.90
2023-11-08T05:16:27.044Z,2.30
2023-11-08T05:18:54.131Z,1.70
2023-11-08T05:21:22.407Z,2.00
2023-11-08T05:23:49.509Z,1.77
2023-11-08T05:26:17.597Z,1.80
2023-11-08T05:28:44.623Z,2.10
2023-11-08T05:31:12.986Z,2.23
2023-11-08T05:33:43.358Z,2.13
2023-11-08T05:36:10.355Z,1.80
2023-11-08T05:38:40.961Z,1.57
2023-11-08T05:41:07.924Z,1.83
2023-11-08T05:43:34.829Z,1.63
2023-11-08T05:46:01.814Z,1.80
2023-11-08T05:48:28.914Z,1.80
2023-11-08T05:50:55.905Z,2.00
2023-11-08T05:53:23.910Z,2.03
2023-11-08T05:55:51.279Z,1.93
2023-11-08T05:58:18.281Z,1.93
2023-11-08T06:00:45.413Z,1.70
2023-11-08T06:03:12.619Z,2.50
2023-11-08T06:05:40.279Z,1.87
2023-11-08T06:08:07.963Z,1.67
2023-11-08T06:10:35.203Z,1.67
2023-11-08T06:13:06.264Z,2.30
2023-11-08T06:15:33.310Z,1.80
2023-11-08T06:18:01.699Z,1.80
2023-11-08T06:20:28.948Z,1.70
2023-11-08T06:22:55.927Z,1.90
2023-11-08T06:25:23.831Z,1.93
2023-11-08T06:27:50.756Z,1.70
2023-11-08T06:30:18.211Z,1.90
2023-11-08T06:32:45.544Z,1.87
2023-11-08T06:35:13.074Z,2.03
2023-11-08T06:37:41.155Z,2.70
2023-11-08T06:40:10.366Z,1.93
2023-11-08T06:42:39.055Z,1.70
2023-11-08T06:45:07.970Z,1.80
2023-11-08T06:47:35.016Z,1.90
2023-11-08T06:50:03.219Z,1.80
2023-11-08T06:52:30.225Z,1.90
2023-11-08T06:54:57.191Z,1.70
2023-11-08T06:57:24.335Z,1.80
2023-11-08T06:59:51.277Z,2.10
2023-11-08T07:02:18.298Z,2.10
2023-11-08T07:04:45.331Z,2.87
2023-11-08T07:07:12.839Z,2.10
2023-11-08T07:09:40.480Z,2.60
2023-11-08T07:12:09.955Z,3.60
2023-11-08T07:14:37.719Z,26.63
2023-11-08T07:17:06.540Z,17.00
2023-11-08T07:19:34.014Z,3.27
2023-11-08T07:22:00.964Z,2.43
2023-11-08T07:24:28.000Z,2.80
2023-11-08T07:26:54.977Z,1.97
2023-11-08T07:29:23.428Z,3.10
2023-11-08T07:31:53.186Z,9.83
2023-11-08T07:34:23.438Z,10.37
2023-11-08T07:36:52.696Z,4.10
2023-11-08T07:39:27.016Z,2.53
2023-11-08T07:41:55.286Z,2.47
2023-11-08T07:44:22.307Z,2.33
2023-11-08T07:46:49.504Z,1.70
2023-11-08T07:49:17.317Z,1.60
2023-11-08T07:51:44.850Z,2.10
2023-11-08T07:54:12.173Z,2.33
2023-11-08T07:56:39.491Z,2.63
2023-11-08T07:59:06.848Z,1.73
2023-11-08T08:01:33.841Z,2.30
2023-11-08T08:04:01.397Z,2.60
2023-11-08T08:06:28.934Z,2.50
2023-11-08T08:08:58.194Z,2.20
2023-11-08T08:11:25.172Z,1.80
2023-11-08T08:13:53.522Z,1.77
2023-11-08T08:16:23.203Z,2.10
2023-11-08T08:18:50.295Z,2.17
2023-11-08T08:21:19.389Z,2.47
2023-11-08T08:23:51.686Z,2.50
2023-11-08T08:26:25.341Z,1.97
2023-11-08T08:28:52.289Z,2.57
2023-11-08T08:31:20.008Z,2.03
2023-11-08T08:33:47.072Z,1.90
2023-11-08T08:36:14.124Z,1.47
2023-11-08T08:38:41.377Z,1.93
2023-11-08T08:41:08.377Z,2.00
2023-11-08T08:43:36.224Z,1.97
2023-11-08T08:46:03.233Z,2.17
2023-11-08T08:48:30.304Z,2.37
2023-11-08T08:50:57.254Z,2.20
2023-11-08T08:53:24.294Z,1.97
2023-11-08T08:55:51.227Z,1.80
2023-11-08T08:58:18.277Z,1.83
2023-11-08T09:00:45.243Z,1.80
2023-11-08T09:03:12.279Z,1.60
2023-11-08T09:05:39.369Z,1.33
2023-11-08T09:08:06.502Z,1.57
2023-11-08T09:10:33.529Z,1.40
2023-11-08T09:13:00.874Z,2.00
2023-11-08T09:15:31.791Z,1.70
2023-11-08T09:17:58.980Z,1.63
2023-11-08T09:20:26.283Z,1.30
2023-11-08T09:22:53.240Z,1.67
2023-11-08T09:25:20.204Z,1.60
2023-11-08T09:27:47.324Z,1.97
2023-11-08T09:30:14.809Z,1.30
2023-11-08T09:32:42.188Z,1.50
2023-11-08T09:35:10.248Z,1.30
2023-11-08T09:37:37.793Z,1.67
2023-11-08T09:40:10.832Z,1.87
2023-11-08T09:42:39.464Z,1.40
2023-11-08T09:45:10.348Z,1.30
2023-11-08T09:47:39.647Z,1.30
2023-11-08T09:50:10.424Z,1.70
2023-11-08T09:52:40.933Z,1.70
2023-11-08T09:55:11.949Z,1.80
2023-11-08T09:57:40.664Z,1.77
2023-11-08T10:00:09.834Z,1.80
2023-11-08T10:02:38.803Z,1.70
2023-11-08T10:05:06.622Z,2.03
2023-11-08T10:07:34.573Z,1.87
2023-11-08T10:10:04.085Z,1.90
2023-11-08T10:12:33.793Z,1.87
2023-11-08T10:15:08.111Z,2.13
2023-11-08T10:19:30.489Z,2.10
2023-11-08T10:20:36.273Z,1.87
2023-11-08T10:23:04.529Z,1.60
2023-11-08T10:25:31.547Z,1.63
2023-11-08T10:28:07.602Z,1.87
2023-11-08T10:30:41.569Z,1.70
2023-11-08T10:33:14.154Z,2.00
2023-11-08T10:35:44.957Z,1.60
2023-11-08T10:38:12.318Z,2.00
2023-11-08T10:40:39.553Z,2.00
2023-11-08T10:43:07.091Z,1.70
2023-11-08T10:45:34.561Z,1.20
2023-11-08T10:48:02.285Z,1.47
2023-11-08T10:50:30.255Z,2.30
2023-11-08T10:52:58.407Z,1.70
2023-11-08T10:55:27.272Z,1.43
2023-11-08T10:57:59.967Z,1.30
2023-11-08T11:00:28.054Z,1.30
2023-11-08T11:03:02.618Z,1.60
2023-11-08T11:05:32.151Z,1.47
2023-11-08T11:08:01.692Z,1.73
2023-11-08T11:10:30.027Z,2.20
2023-11-08T11:13:08.285Z,1.83
2023-11-08T11:15:58.971Z,1.90
2023-11-08T11:18:35.423Z,2.00
2023-11-08T11:21:16.846Z,2.20
2023-11-08T11:23:44.023Z,1.60
2023-11-08T11:26:14.073Z,1.90
2023-11-08T11:28:53.559Z,1.80
2023-11-08T11:31:37.017Z,1.70
2023-11-08T11:34:22.724Z,2.07
2023-11-08T11:37:06.987Z,1.67
2023-11-08T11:39:36.067Z,2.00
2023-11-08T11:42:26.756Z,1.87
2023-11-08T11:45:01.349Z,1.70
2023-11-08T11:47:30.806Z,1.50
2023-11-08T11:50:02.291Z,1.70
2023-11-08T11:52:31.927Z,1.70
2023-11-08T11:55:00.887Z,2.10
2023-11-08T11:57:30.964Z,1.70
2023-11-08T12:00:01.104Z,1.60
2023-11-08T12:02:30.313Z,1.90
2023-11-08T12:05:00.028Z,2.03
2023-11-08T12:07:27.521Z,1.63
2023-11-08T12:09:55.312Z,1.80
2023-11-08T12:12:30.848Z,1.33
2023-11-08T12:14:58.970Z,1.27
2023-11-08T12:17:28.358Z,1.63
2023-11-08T12:19:56.114Z,1.70
2023-11-08T12:22:23.131Z,1.20
2023-11-08T12:24:50.801Z,1.23
2023-11-08T12:27:18.289Z,1.10
2023-11-08T12:29:46.219Z,1.30
2023-11-08T12:32:13.300Z,1.27
2023-11-08T12:34:41.861Z,1.40
2023-11-08T12:37:11.588Z,1.70
2023-11-08T12:39:38.696Z,1.63
2023-11-08T12:42:15.975Z,1.30
2023-11-08T12:44:47.964Z,1.57
2023-11-08T12:47:15.032Z,1.20
2023-11-08T12:49:43.296Z,1.30
2023-11-08T12:52:13.403Z,1.57
2023-11-08T12:54:40.399Z,1.20
2023-11-08T12:57:07.373Z,1.30
2023-11-08T12:59:43.431Z,1.20
2023-11-08T13:02:12.763Z,1.50
2023-11-08T13:04:43.135Z,1.40
2023-11-08T13:07:10.607Z,1.20
2023-11-08T13:09:41.514Z,1.00
2023-11-08T13:12:09.252Z,0.90
2023-11-08T13:14:36.171Z,1.50
2023-11-08T13:17:04.854Z,1.47
2023-11-08T13:19:31.849Z,1.53
2023-11-08T13:21:59.209Z,1.00
2023-11-08T13:24:26.261Z,1.50
2023-11-08T13:26:54.116Z,1.47
2023-11-08T13:29:22.022Z,1.23
2023-11-08T13:31:50.244Z,1.27
2023-11-08T13:34:17.543Z,1.00
2023-11-08T13:36:44.658Z,1.07
2023-11-08T13:39:11.766Z,1.50
2023-11-08T13:41:38.720Z,0.83
2023-11-08T13:44:06.393Z,1.47
2023-11-08T13:46:33.325Z,1.20
2023-11-08T13:49:01.499Z,1.00
2023-11-08T13:51:28.862Z,1.17
2023-11-08T13:53:55.755Z,1.27
2023-11-08T13:56:24.364Z,1.10
2023-11-08T13:58:51.436Z,1.30
2023-11-08T14:01:18.664Z,1.27
2023-11-08T14:03:46.165Z,1.20
2023-11-08T14:06:13.787Z,1.20
2023-11-08T14:08:41.470Z,0.97
2023-11-08T14:11:09.216Z,1.43
2023-11-08T14:13:36.441Z,1.17
2023-11-08T14:16:04.029Z,1.17
2023-11-08T14:18:31.070Z,1.50
2023-11-08T14:20:58.934Z,1.30
2023-11-08T14:23:25.926Z,1.37
2023-11-08T14:25:52.941Z,1.67
2023-11-08T14:28:20.428Z,1.13
2023-11-08T14:30:47.743Z,1.47
2023-11-08T14:33:16.941Z,1.00
2023-11-08T14:35:44.017Z,1.00
2023-11-08T14:38:11.100Z,1.10
2023-11-08T14:40:39.421Z,0.87
2023-11-08T14:43:06.548Z,1.10
2023-11-08T14:45:33.971Z,1.17
2023-11-08T14:48:01.039Z,1.20
2023-11-08T14:50:28.243Z,0.90
2023-11-08T14:52:55.350Z,1.07
2023-11-08T14:55:22.319Z,1.60
2023-11-08T14:57:49.364Z,1.53
2023-11-08T15:00:17.098Z,1.33
2023-11-08T15:02:44.139Z,1.10
2023-11-08T15:05:11.114Z,1.80
2023-11-08T15:09:42.835Z,2.30
2023-11-08T15:10:25.585Z,0.93
2023-11-08T15:12:56.193Z,1.27
2023-11-08T15:15:24.216Z,1.40
2023-11-08T15:17:51.340Z,1.47
2023-11-08T15:20:18.649Z,1.30
2023-11-08T15:22:46.035Z,1.70
2023-11-08T15:25:13.445Z,1.80
2023-11-08T15:27:40.902Z,1.47
2023-11-08T15:30:09.849Z,1.30
2023-11-08T15:32:40.183Z,1.20
2023-11-08T15:35:09.810Z,1.10
2023-11-08T15:37:38.110Z,1.30
2023-11-08T15:40:05.784Z,1.40
2023-11-08T15:42:33.410Z,1.67
2023-11-08T15:45:00.495Z,1.20
2023-11-08T15:47:27.597Z,1.30
2023-11-08T15:49:54.952Z,2.00
2023-11-08T15:52:22.713Z,1.33
2023-11-08T15:54:49.714Z,1.40
2023-11-08T15:57:16.748Z,1.20
2023-11-08T15:59:43.743Z,1.10
2023-11-08T16:02:10.689Z,1.30
2023-11-08T16:04:38.469Z,1.00
2023-11-08T16:07:05.554Z,2.20
2023-11-08T16:09:33.070Z,2.10
2023-11-08T16:12:00.121Z,2.13
2023-11-08T16:14:27.111Z,1.70
2023-11-08T16:16:54.069Z,1.30
2023-11-08T16:19:21.423Z,1.37
2023-11-08T16:21:50.748Z,1.20
2023-11-08T16:24:18.150Z,1.30
2023-11-08T16:26:45.439Z,1.90
2023-11-08T16:29:49.422Z,1.50
2023-11-08T16:32:33.615Z,2.17
2023-11-08T16:34:50.256Z,2.43
2023-11-08T16:37:17.861Z,2.50
2023-11-08T16:39:45.287Z,2.07
2023-11-08T16:42:12.394Z,2.07
2023-11-08T16:44:40.119Z,2.00
2023-11-08T16:47:07.402Z,2.70
2023-11-08T16:49:35.878Z,3.47
2023-11-08T16:52:02.838Z,4.93
2023-11-08T16:54:29.843Z,3.07
2023-11-08T16:56:59.633Z,2.17
2023-11-08T16:59:26.663Z,1.80
2023-11-08T17:01:53.579Z,2.07
2023-11-08T17:04:21.572Z,2.77
2023-11-08T17:06:51.056Z,2.70
2023-11-08T17:09:18.936Z,3.27
2023-11-08T17:11:46.068Z,2.60
2023-11-08T17:14:13.055Z,1.70
2023-11-08T17:16:43.057Z,1.77
2023-11-08T17:19:11.489Z,1.73
2023-11-08T17:21:38.676Z,1.40
2023-11-08T17:24:07.248Z,1.30
2023-11-08T17:26:34.511Z,1.90
2023-11-08T17:29:01.661Z,1.77
2023-11-08T17:31:30.023Z,1.93
2023-11-08T17:33:57.405Z,2.67
2023-11-08T17:36:24.416Z,2.90
2023-11-08T17:38:52.206Z,2.70
2023-11-08T17:41:19.371Z,2.50
2023-11-08T17:43:47.518Z,2.80
2023-11-08T17:46:15.528Z,2.70
2023-11-08T17:48:42.858Z,3.33
2023-11-08T17:51:09.909Z,3.20
2023-11-08T17:53:36.813Z,1.87
2023-11-08T17:56:06.959Z,6.73
2023-11-08T17:58:34.649Z,3.90
2023-11-08T18:01:01.661Z,2.20
2023-11-08T18:03:28.767Z,1.80
2023-11-08T18:05:58.626Z,2.67
2023-11-08T18:08:25.615Z,2.60
2023-11-08T18:10:52.577Z,5.00
2023-11-08T18:13:19.571Z,6.57
2023-11-08T18:15:48.595Z,4.33
2023-11-08T18:18:17.958Z,3.00
2023-11-08T18:20:45.060Z,3.30
2023-11-08T18:23:12.795Z,4.17
2023-11-08T18:25:41.052Z,3.87
2023-11-08T18:28:08.091Z,3.83
2023-11-08T18:30:35.119Z,3.10
2023-11-08T18:33:02.168Z,3.37
2023-11-08T18:35:29.514Z,2.80
2023-11-08T18:37:56.610Z,3.43
2023-11-08T18:40:24.184Z,2.90
2023-11-08T18:42:51.199Z,3.30
2023-11-08T18:45:18.770Z,3.47
2023-11-08T18:47:45.924Z,2.30
2023-11-08T18:50:14.413Z,2.30
2023-11-08T18:52:41.742Z,2.80
2023-11-08T18:55:09.207Z,2.80
2023-11-08T18:57:37.099Z,2.67
2023-11-08T19:00:10.517Z,2.37
2023-11-08T19:02:38.509Z,3.13
2023-11-08T19:05:06.996Z,2.83
2023-11-08T19:07:35.115Z,2.87
2023-11-08T19:10:04.747Z,2.63
2023-11-08T19:12:33.339Z,3.30
2023-11-08T19:15:00.309Z,3.07
2023-11-08T19:17:27.395Z,2.60
2023-11-08T19:19:54.327Z,2.37
2023-11-08T19:22:21.661Z,2.37
2023-11-08T19:24:49.377Z,2.50
2023-11-08T19:27:16.337Z,2.37
2023-11-08T19:29:43.234Z,2.40
2023-11-08T19:32:12.600Z,3.00
2023-11-08T19:34:40.264Z,3.10
2023-11-08T19:37:07.483Z,2.90
2023-11-08T19:39:34.490Z,5.27
2023-11-08T19:42:02.514Z,6.20
2023-11-08T19:44:30.914Z,6.30
2023-11-08T19:46:57.886Z,5.50
2023-11-08T19:49:25.292Z,4.90
2023-11-08T19:51:52.480Z,4.40
2023-11-08T19:54:20.025Z,4.40
2023-11-08T19:56:47.149Z,3.30
2023-11-08T19:59:14.201Z,3.83
2023-11-08T20:01:41.259Z,3.93
2023-11-08T20:04:08.286Z,3.20
2023-11-08T20:06:35.339Z,4.33
2023-11-08T20:09:02.331Z,4.47
2023-11-08T20:11:31.562Z,5.20
2023-11-08T20:14:01.749Z,6.53
2023-11-08T20:16:28.752Z,8.80
2023-11-08T20:18:55.723Z,9.13
2023-11-08T20:21:25.738Z,9.80
2023-11-08T20:23:53.488Z,6.80
2023-11-08T20:26:21.458Z,7.60
2023-11-08T20:28:50.513Z,7.40
2023-11-08T20:31:17.757Z,6.80
2023-11-08T20:33:45.143Z,6.30
2023-11-08T20:36:12.732Z,6.20
2023-11-08T20:38:41.485Z,5.20
2023-11-08T20:41:14.107Z,5.37
2023-11-08T20:43:42.263Z,4.87
2023-11-08T20:46:14.188Z,4.80
2023-11-08T20:48:41.288Z,3.70
2023-11-08T20:51:08.562Z,4.47
2023-11-08T20:53:35.948Z,5.60
2023-11-08T20:56:02.907Z,5.13
2023-11-08T20:58:29.854Z,5.03
2023-11-08T21:00:59.986Z,7.30
2023-11-08T21:03:29.060Z,6.20
2023-11-08T21:05:59.200Z,5.73
2023-11-08T21:08:26.241Z,4.00
2023-11-08T21:10:53.974Z,4.50
2023-11-08T21:13:21.007Z,4.50
2023-11-08T21:15:49.779Z,4.63
2023-11-08T21:18:19.849Z,4.70
2023-11-08T21:20:48.779Z,4.43
2023-11-08T21:23:15.858Z,4.70
2023-11-08T21:25:43.180Z,3.97
2023-11-08T21:28:10.158Z,4.10
2023-11-08T21:30:37.987Z,4.70
2023-11-08T21:33:05.618Z,4.40
2023-11-08T21:35:32.654Z,3.87
2023-11-08T21:37:59.914Z,4.17
2023-11-08T21:40:27.134Z,4.83
2023-11-08T21:42:55.505Z,4.33
2023-11-08T21:45:22.868Z,4.17
2023-11-08T21:47:49.977Z,4.20
2023-11-08T21:50:17.042Z,4.43
2023-11-08T21:52:43.984Z,4.60
2023-11-08T21:55:13.466Z,4.60
2023-11-08T21:57:40.445Z,4.70
2023-11-08T22:00:08.281Z,5.63
2023-11-08T22:02:35.230Z,4.70
2023-11-08T22:05:02.396Z,5.00
2023-11-08T22:07:29.611Z,4.13
2023-11-08T22:09:57.070Z,4.73
2023-11-08T22:12:24.476Z,4.10
2023-11-08T22:14:52.290Z,4.50
2023-11-08T22:17:19.363Z,5.60
2023-11-08T22:19:46.355Z,12.90
2023-11-08T22:22:13.470Z,11.53
2023-11-08T22:24:40.469Z,8.70
2023-11-08T22:27:07.649Z,6.07
2023-11-08T22:29:34.829Z,4.40
2023-11-08T22:32:01.849Z,4.07
2023-11-08T22:34:28.915Z,4.57
2023-11-08T22:36:55.902Z,3.97
2023-11-08T22:39:22.920Z,3.43
2023-11-08T22:41:49.826Z,3.77
2023-11-08T22:44:16.879Z,3.63
2023-11-08T22:46:43.834Z,4.07
2023-11-08T22:49:11.657Z,3.70
2023-11-08T22:51:38.982Z,4.93
2023-11-08T22:54:07.617Z,3.90
2023-11-08T22:56:35.469Z,3.63
2023-11-08T22:59:02.873Z,3.60
2023-11-08T23:01:33.927Z,4.13
2023-11-08T23:04:02.706Z,4.67
2023-11-08T23:06:31.394Z,4.27
2023-11-08T23:09:01.263Z,3.57
2023-11-08T23:11:31.351Z,4.40
2023-11-08T23:13:58.738Z,4.10
2023-11-08T23:16:26.305Z,4.20
2023-11-08T23:18:56.157Z,4.30
2023-11-08T23:21:23.528Z,3.83
2023-11-08T23:23:52.282Z,3.40
2023-11-08T23:26:20.243Z,4.10
2023-11-08T23:28:47.255Z,4.10
2023-11-08T23:31:14.237Z,4.00
2023-11-08T23:33:41.264Z,3.60
2023-11-08T23:36:13.536Z,3.60
2023-11-08T23:38:43.387Z,4.37
2023-11-08T23:41:10.782Z,4.53
2023-11-08T23:43:37.848Z,3.87
2023-11-08T23:46:05.080Z,3.80
2023-11-08T23:48:32.171Z,4.00
2023-11-08T23:50:59.063Z,3.90
2023-11-08T23:53:26.143Z,4.13
2023-11-08T23:55:53.340Z,4.53
2023-11-08T23:58:21.445Z,3.77
